createdAt,value
2019-05-06T00:00:56.459Z,7.24
2019-05-06T00:01:50.942Z,7.21
2019-05-06T00:02:50.951Z,7.21
2019-05-06T00:03:50.957Z,7.03
2019-05-06T00:04:50.972Z,7.05
2019-05-06T00:05:50.977Z,7.06
2019-05-06T00:06:50.988Z,7.07
2019-05-06T00:07:51.005Z,6.98
2019-05-06T00:08:51.011Z,6.97
2019-05-06T00:09:51.027Z,7.03
2019-05-06T00:10:51.035Z,6.98
2019-05-06T00:11:51.123Z,7.03
2019-05-06T00:12:51.052Z,7.10
2019-05-06T00:13:51.062Z,7.07
2019-05-06T00:14:51.078Z,7.05
2019-05-06T00:15:51.080Z,7.06
2019-05-06T00:16:51.223Z,6.95
2019-05-06T00:17:51.208Z,6.92
2019-05-06T00:18:51.122Z,7.05
2019-05-06T00:19:51.131Z,6.99
2019-05-06T00:20:51.135Z,7.06
2019-05-06T00:21:51.154Z,6.97
2019-05-06T00:22:51.598Z,7.03
2019-05-06T00:23:51.638Z,7.02
2019-05-06T00:24:51.177Z,7.07
2019-05-06T00:25:53.424Z,6.98
2019-05-06T00:26:55.015Z,7.05
2019-05-06T00:28:51.321Z,7.13
2019-05-06T00:29:51.455Z,7.12
2019-05-06T00:30:51.666Z,7.02
2019-05-06T00:31:53.521Z,6.92
2019-05-06T00:32:51.258Z,7.02
2019-05-06T00:33:51.263Z,6.91
2019-05-06T00:34:51.274Z,6.92
2019-05-06T00:35:51.290Z,6.85
2019-05-06T00:36:51.301Z,6.98
2019-05-06T00:37:53.547Z,6.94
2019-05-06T00:38:51.347Z,6.89
2019-05-06T00:39:51.324Z,6.91
2019-05-06T00:40:51.332Z,7.02
2019-05-06T00:41:51.356Z,6.89
2019-05-06T00:42:51.381Z,6.92
2019-05-06T00:43:51.365Z,6.85
2019-05-06T00:44:53.615Z,6.85
2019-05-06T00:45:53.179Z,6.85
2019-05-06T00:46:51.401Z,6.77
2019-05-06T00:47:53.497Z,6.81
2019-05-06T00:48:51.420Z,6.84
2019-05-06T00:49:51.434Z,6.94
2019-05-06T00:50:53.459Z,6.88
2019-05-06T00:51:51.477Z,6.84
2019-05-06T00:52:51.458Z,6.87
2019-05-06T00:53:51.470Z,6.91
2019-05-06T00:54:51.486Z,6.73
2019-05-06T00:56:53.990Z,6.73
2019-05-06T00:57:54.311Z,6.76
2019-05-06T00:58:54.305Z,6.77
2019-05-06T00:59:53.717Z,6.84
2019-05-06T01:00:53.286Z,6.76
2019-05-06T01:01:53.745Z,6.70
2019-05-06T01:02:51.555Z,6.69
2019-05-06T01:03:53.578Z,6.62
2019-05-06T01:04:51.582Z,6.66
2019-05-06T01:05:51.587Z,6.59
2019-05-06T01:06:51.708Z,6.59
2019-05-06T01:07:51.608Z,6.58
2019-05-06T01:08:51.616Z,6.61
2019-05-06T01:09:51.626Z,6.59
2019-05-06T01:10:51.644Z,6.54
2019-05-06T01:11:51.650Z,6.48
2019-05-06T01:12:51.672Z,6.41
2019-05-06T01:13:51.754Z,6.40
2019-05-06T01:14:51.684Z,6.43
2019-05-06T01:16:51.707Z,6.44
2019-05-06T01:17:53.745Z,6.46
2019-05-06T01:18:54.014Z,6.43
2019-05-06T01:19:53.951Z,6.49
2019-05-06T01:20:54.021Z,6.41
2019-05-06T01:21:53.880Z,6.43
2019-05-06T01:22:51.799Z,6.46
2019-05-06T01:23:51.874Z,6.46
2019-05-06T01:24:51.951Z,6.51
2019-05-06T01:25:51.825Z,6.49
2019-05-06T01:26:53.700Z,6.48
2019-05-06T01:27:53.911Z,6.40
2019-05-06T01:28:51.842Z,6.49
2019-05-06T01:29:51.856Z,6.48
2019-05-06T01:30:53.565Z,6.46
2019-05-06T01:31:54.184Z,6.52
2019-05-06T01:32:51.885Z,6.46
2019-05-06T01:33:53.552Z,6.51
2019-05-06T01:34:53.718Z,6.41
2019-05-06T01:35:54.066Z,6.43
2019-05-06T01:36:51.905Z,6.40
2019-05-06T01:37:51.915Z,6.46
2019-05-06T01:38:53.537Z,6.40
2019-05-06T01:39:53.725Z,6.52
2019-05-06T01:40:51.939Z,6.51
2019-05-06T01:41:53.702Z,6.43
2019-05-06T01:42:54.016Z,6.36
2019-05-06T01:43:51.970Z,6.43
2019-05-06T01:44:53.873Z,6.46
2019-05-06T01:45:53.647Z,6.44
2019-05-06T01:46:54.036Z,6.38
2019-05-06T01:47:52.010Z,6.44
2019-05-06T01:48:53.607Z,6.41
2019-05-06T01:49:53.727Z,6.41
2019-05-06T01:50:53.853Z,6.43
2019-05-06T01:51:52.047Z,6.46
2019-05-06T01:52:53.987Z,6.40
2019-05-06T01:55:52.093Z,6.51
2019-05-06T01:56:53.783Z,6.36
2019-05-06T01:57:54.405Z,6.41
2019-05-06T01:58:53.618Z,6.41
2019-05-06T01:59:53.911Z,6.40
2019-05-06T02:00:54.061Z,6.44
2019-05-06T02:01:58.118Z,6.48
2019-05-06T02:02:54.598Z,6.40
2019-05-06T02:03:53.833Z,6.30
2019-05-06T02:04:54.051Z,6.40
2019-05-06T02:05:53.958Z,6.41
2019-05-06T02:06:54.346Z,6.27
2019-05-06T02:07:52.206Z,6.40
2019-05-06T02:08:54.026Z,6.22
2019-05-06T02:09:54.203Z,6.19
2019-05-06T02:10:54.394Z,6.14
2019-05-06T02:11:53.642Z,6.17
2019-05-06T02:12:54.105Z,6.12
2019-05-06T02:13:53.819Z,6.18
2019-05-06T02:14:54.170Z,6.14
2019-05-06T02:15:54.620Z,6.14
2019-05-06T02:16:54.358Z,6.03
2019-05-06T02:17:52.314Z,6.12
2019-05-06T02:18:54.015Z,6.12
2019-05-06T02:19:54.445Z,6.18
2019-05-06T02:20:53.802Z,6.15
2019-05-06T02:21:54.262Z,6.17
2019-05-06T02:22:53.845Z,6.15
2019-05-06T02:23:53.529Z,6.15
2019-05-06T02:24:53.593Z,6.14
2019-05-06T02:25:53.946Z,6.17
2019-05-06T02:26:54.256Z,6.06
2019-05-06T02:27:54.160Z,6.09
2019-05-06T02:28:54.481Z,5.99
2019-05-06T02:29:54.317Z,6.00
2019-05-06T02:30:54.806Z,5.99
2019-05-06T02:31:56.609Z,6.03
2019-05-06T02:32:55.445Z,6.08
2019-05-06T02:33:55.878Z,5.97
2019-05-06T02:34:54.619Z,6.08
2019-05-06T02:35:55.008Z,6.09
2019-05-06T02:36:55.124Z,6.04
2019-05-06T02:37:54.905Z,6.03
2019-05-06T02:38:55.655Z,6.06
2019-05-06T02:39:53.378Z,6.14
2019-05-06T02:40:53.548Z,6.04
2019-05-06T02:41:54.958Z,5.94
2019-05-06T02:42:54.579Z,6.03
2019-05-06T02:43:54.141Z,6.08
2019-05-06T02:44:53.933Z,5.99
2019-05-06T02:45:53.230Z,6.03
2019-05-06T02:46:53.385Z,5.94
2019-05-06T02:47:53.853Z,6.09
2019-05-06T02:48:54.263Z,6.09
2019-05-06T02:49:53.528Z,6.14
2019-05-06T02:50:53.756Z,6.08
2019-05-06T02:51:53.522Z,6.03
2019-05-06T02:52:53.718Z,6.03
2019-05-06T02:53:53.829Z,6.01
2019-05-06T02:54:53.701Z,5.99
2019-05-06T02:55:53.256Z,6.01
2019-05-06T02:58:53.671Z,5.96
2019-05-06T02:59:55.249Z,5.99
2019-05-06T03:00:53.942Z,5.97
2019-05-06T03:01:53.935Z,6.01
2019-05-06T03:02:54.109Z,5.94
2019-05-06T03:03:53.759Z,5.96
2019-05-06T03:04:53.088Z,5.97
2019-05-06T03:05:53.409Z,5.91
2019-05-06T03:06:53.440Z,5.90
2019-05-06T03:07:57.067Z,5.83
2019-05-06T03:08:54.277Z,5.89
2019-05-06T03:09:53.443Z,5.81
2019-05-06T03:10:53.592Z,5.89
2019-05-06T03:12:53.818Z,5.89
2019-05-06T03:13:53.863Z,5.85
2019-05-06T03:14:53.442Z,5.78
2019-05-06T03:15:54.076Z,5.86
2019-05-06T03:16:53.980Z,5.97
2019-05-06T03:17:55.289Z,5.99
2019-05-06T03:18:53.485Z,6.00
2019-05-06T03:19:52.922Z,5.99
2019-05-06T03:20:53.401Z,5.96
2019-05-06T03:21:54.730Z,6.08
2019-05-06T03:22:54.417Z,6.06
2019-05-06T03:23:54.155Z,6.06
2019-05-06T03:24:54.438Z,6.11
2019-05-06T03:25:53.522Z,5.94
2019-05-06T03:26:56.757Z,5.99
2019-05-06T03:27:53.321Z,5.89
2019-05-06T03:29:53.873Z,6.00
2019-05-06T03:30:56.686Z,6.11
2019-05-06T03:31:56.419Z,5.94
2019-05-06T03:33:28.107Z,6.03
2019-05-06T03:34:17.138Z,6.12
2019-05-06T03:35:16.158Z,6.09
2019-05-06T03:36:05.249Z,6.09
2019-05-06T03:36:56.222Z,6.03
2019-05-06T03:37:53.510Z,6.09
2019-05-06T03:38:53.804Z,5.99
2019-05-06T03:39:53.264Z,5.97
2019-05-06T03:41:53.807Z,6.00
2019-05-06T03:42:53.984Z,6.03
2019-05-06T03:43:54.370Z,6.12
2019-05-06T03:44:53.551Z,6.12
2019-05-06T03:45:53.805Z,6.06
2019-05-06T03:46:53.990Z,6.01
2019-05-06T03:47:54.314Z,5.94
2019-05-06T03:48:53.210Z,5.96
2019-05-06T03:49:54.559Z,5.90
2019-05-06T03:50:55.894Z,5.96
2019-05-06T03:51:56.154Z,5.81
2019-05-06T03:52:56.213Z,5.94
2019-05-06T03:53:54.014Z,5.90
2019-05-06T03:54:53.856Z,5.85
2019-05-06T03:55:53.946Z,5.71
2019-05-06T03:56:53.817Z,5.74
2019-05-06T03:57:54.010Z,5.71
2019-05-06T03:58:53.855Z,5.71
2019-05-06T04:00:54.023Z,5.72
2019-05-06T04:01:53.587Z,5.76
2019-05-06T04:03:56.947Z,5.76
2019-05-06T04:04:56.379Z,5.78
2019-05-06T04:05:55.868Z,5.74
2019-05-06T04:06:53.925Z,5.65
2019-05-06T04:07:53.433Z,5.65
2019-05-06T04:08:53.484Z,5.65
2019-05-06T04:09:53.954Z,5.63
2019-05-06T04:10:53.979Z,5.67
2019-05-06T04:11:54.257Z,5.71
2019-05-06T04:13:53.859Z,5.68
2019-05-06T04:14:54.174Z,5.67
2019-05-06T04:15:53.943Z,5.65
2019-05-06T04:16:53.555Z,5.64
2019-05-06T04:17:54.145Z,5.65
2019-05-06T04:18:54.071Z,5.58
2019-05-06T04:19:53.634Z,5.58
2019-05-06T04:20:53.563Z,5.46
2019-05-06T04:21:53.536Z,5.48
2019-05-06T04:22:53.522Z,5.49
2019-05-06T04:23:53.758Z,5.43
2019-05-06T04:24:53.997Z,5.39
2019-05-06T04:25:53.566Z,5.39
2019-05-06T04:26:53.787Z,5.45
2019-05-06T04:27:54.040Z,5.42
2019-05-06T04:28:53.664Z,5.39
2019-05-06T04:30:54.909Z,5.43
2019-05-06T04:31:54.419Z,5.39
2019-05-06T04:34:08.519Z,5.38
2019-05-06T04:34:53.803Z,5.40
2019-05-06T04:35:54.207Z,5.42
2019-05-06T04:36:53.723Z,5.54
2019-05-06T04:37:54.099Z,5.61
2019-05-06T04:38:54.222Z,5.58
2019-05-06T04:39:53.791Z,5.57
2019-05-06T04:41:54.375Z,5.60
2019-05-06T04:42:53.742Z,5.57
2019-05-06T04:43:53.776Z,5.58
2019-05-06T04:44:53.750Z,5.67
2019-05-06T04:45:54.330Z,5.63
2019-05-06T04:46:54.592Z,5.71
2019-05-06T04:48:54.050Z,5.68
2019-05-06T04:49:53.786Z,5.60
2019-05-06T04:50:54.093Z,5.68
2019-05-06T04:51:54.315Z,5.64
2019-05-06T04:52:53.910Z,5.56
2019-05-06T04:53:53.940Z,5.60
2019-05-06T04:54:53.889Z,5.64
2019-05-06T04:55:54.215Z,5.60
2019-05-06T04:56:53.907Z,5.61
2019-05-06T04:57:54.020Z,5.64
2019-05-06T04:58:54.119Z,5.78
2019-05-06T05:00:53.888Z,5.76
2019-05-06T05:01:54.070Z,5.74
2019-05-06T05:02:54.938Z,5.89
2019-05-06T05:04:54.177Z,5.86
2019-05-06T05:05:53.967Z,5.94
2019-05-06T05:06:54.050Z,5.97
2019-05-06T05:09:54.254Z,5.93
2019-05-06T05:10:54.922Z,5.96
2019-05-06T05:11:54.447Z,5.96
2019-05-06T05:12:54.426Z,5.91
2019-05-06T05:14:54.387Z,6.03
2019-05-06T05:15:54.237Z,6.04
2019-05-06T05:16:55.566Z,6.12
2019-05-06T05:17:54.260Z,6.03
2019-05-06T05:18:54.281Z,6.06
2019-05-06T05:19:55.174Z,6.18
2019-05-06T05:20:54.078Z,6.18
2019-05-06T05:21:54.087Z,6.28
2019-05-06T05:22:54.100Z,6.31
2019-05-06T05:23:54.180Z,6.27
2019-05-06T05:25:54.867Z,6.31
2019-05-06T05:26:54.815Z,6.31
2019-05-06T05:27:54.199Z,6.46
2019-05-06T05:28:54.184Z,6.40
2019-05-06T05:30:54.178Z,6.34
2019-05-06T05:31:54.373Z,6.28
2019-05-06T05:32:54.549Z,6.33
2019-05-06T05:33:54.211Z,6.33
2019-05-06T05:34:54.893Z,6.44
2019-05-06T05:35:56.223Z,6.41
2019-05-06T05:36:54.232Z,6.40
2019-05-06T05:37:54.278Z,6.25
2019-05-06T05:38:54.270Z,6.28
2019-05-06T05:39:54.271Z,6.30
2019-05-06T05:40:54.296Z,6.25
2019-05-06T05:41:54.371Z,6.41
2019-05-06T05:42:54.305Z,6.34
2019-05-06T05:43:54.345Z,6.49
2019-05-06T05:44:54.318Z,6.55
2019-05-06T05:45:54.451Z,6.44
2019-05-06T05:46:54.418Z,6.56
2019-05-06T05:47:54.351Z,6.48
2019-05-06T05:48:55.538Z,6.52
2019-05-06T05:49:56.010Z,6.61
2019-05-06T05:51:07.462Z,6.66
2019-05-06T05:51:54.387Z,6.74
2019-05-06T05:52:54.411Z,6.77
2019-05-06T05:53:54.462Z,6.81
2019-05-06T05:54:55.621Z,6.77
2019-05-06T05:55:54.441Z,6.91
2019-05-06T05:56:54.640Z,6.85
2019-05-06T05:57:54.456Z,6.92
2019-05-06T05:58:54.469Z,6.94
2019-05-06T05:59:54.500Z,6.98
2019-05-06T06:00:54.484Z,6.88
2019-05-06T06:01:54.526Z,6.91
2019-05-06T06:02:55.013Z,6.81
2019-05-06T06:03:54.664Z,6.91
2019-05-06T06:04:57.504Z,6.91
2019-05-06T06:06:54.686Z,6.77
2019-05-06T06:07:55.165Z,6.79
2019-05-06T06:08:54.639Z,6.87
2019-05-06T06:09:54.591Z,6.81
2019-05-06T06:10:54.594Z,6.91
2019-05-06T06:11:54.649Z,6.94
2019-05-06T06:12:54.605Z,6.92
2019-05-06T06:13:54.619Z,6.92
2019-05-06T06:14:56.130Z,6.94
2019-05-06T06:15:54.676Z,6.92
2019-05-06T06:17:02.046Z,6.88
2019-05-06T06:18:54.774Z,6.91
2019-05-06T06:19:54.793Z,6.87
2019-05-06T06:20:54.894Z,6.84
2019-05-06T06:21:54.722Z,6.91
2019-05-06T06:22:54.729Z,6.99
2019-05-06T06:24:54.742Z,7.15
2019-05-06T06:25:54.742Z,7.13
2019-05-06T06:26:54.781Z,7.21
2019-05-06T06:27:55.128Z,7.24
2019-05-06T06:28:54.817Z,7.28
2019-05-06T06:29:54.799Z,7.32
2019-05-06T06:30:54.924Z,7.35
2019-05-06T06:31:54.800Z,7.35
2019-05-06T06:32:54.818Z,7.25
2019-05-06T06:33:54.849Z,7.21
2019-05-06T06:35:07.332Z,7.27
2019-05-06T06:35:54.891Z,7.31
2019-05-06T06:36:54.968Z,7.37
2019-05-06T06:37:54.864Z,7.31
2019-05-06T06:38:54.872Z,7.34
2019-05-06T06:39:54.903Z,7.40
2019-05-06T06:40:55.718Z,7.43
2019-05-06T06:41:54.986Z,7.37
2019-05-06T06:42:55.160Z,7.42
2019-05-06T06:43:55.180Z,7.43
2019-05-06T06:44:54.936Z,7.43
2019-05-06T06:45:55.809Z,7.45
2019-05-06T06:46:55.019Z,7.55
2019-05-06T06:47:55.122Z,7.57
2019-05-06T06:48:55.129Z,7.61
2019-05-06T06:49:55.080Z,7.63
2019-05-06T06:50:55.039Z,7.55
2019-05-06T06:51:55.959Z,7.53
2019-05-06T06:52:56.252Z,7.55
2019-05-06T06:53:55.301Z,7.64
2019-05-06T06:54:55.296Z,7.79
2019-05-06T06:57:05.074Z,7.85
2019-05-06T06:57:55.186Z,7.90
2019-05-06T06:58:56.012Z,7.98
2019-05-06T06:59:55.783Z,7.97
2019-05-06T07:00:56.158Z,8.04
2019-05-06T07:01:55.236Z,8.00
2019-05-06T07:02:55.211Z,8.07
2019-05-06T07:03:55.136Z,8.02
2019-05-06T07:04:58.300Z,8.01
2019-05-06T07:05:58.348Z,8.01
2019-05-06T07:06:55.784Z,8.01
2019-05-06T07:07:55.238Z,7.92
2019-05-06T07:08:55.197Z,8.02
2019-05-06T07:09:56.596Z,8.00
2019-05-06T07:11:55.232Z,8.15
2019-05-06T07:12:56.861Z,8.28
2019-05-06T07:13:55.282Z,8.38
2019-05-06T07:14:55.265Z,8.34
2019-05-06T07:15:55.644Z,8.44
2019-05-06T07:16:55.278Z,8.55
2019-05-06T07:17:56.813Z,8.66
2019-05-06T07:18:56.036Z,8.63
2019-05-06T07:19:55.538Z,8.73
2019-05-06T07:20:55.863Z,8.50
2019-05-06T07:22:55.370Z,8.53
2019-05-06T07:23:55.360Z,8.58
2019-05-06T07:24:55.376Z,8.58
2019-05-06T07:25:55.396Z,8.59
2019-05-06T07:26:55.427Z,8.77
2019-05-06T07:27:55.608Z,8.94
2019-05-06T07:28:55.523Z,8.98
2019-05-06T07:29:55.564Z,9.02
2019-05-06T07:30:55.496Z,9.17
2019-05-06T07:31:55.462Z,9.29
2019-05-06T07:32:55.808Z,9.17
2019-05-06T07:33:55.570Z,9.21
2019-05-06T07:34:55.635Z,9.21
2019-05-06T07:35:55.621Z,9.24
2019-05-06T07:36:56.297Z,9.24
2019-05-06T07:37:55.542Z,9.05
2019-05-06T07:38:55.535Z,9.11
2019-05-06T07:39:55.545Z,9.17
2019-05-06T07:40:56.545Z,9.29
2019-05-06T07:41:55.584Z,9.39
2019-05-06T07:42:55.575Z,9.53
2019-05-06T07:43:55.588Z,9.51
2019-05-06T07:45:55.626Z,9.32
2019-05-06T07:46:55.616Z,9.33
2019-05-06T07:47:55.674Z,9.43
2019-05-06T07:48:55.652Z,9.48
2019-05-06T07:49:55.677Z,9.54
2019-05-06T07:50:55.667Z,9.54
2019-05-06T07:51:56.057Z,9.66
2019-05-06T07:52:55.854Z,9.74
2019-05-06T07:53:56.414Z,9.86
2019-05-06T07:54:56.055Z,9.94
2019-05-06T07:55:56.914Z,9.91
2019-05-06T07:58:55.770Z,9.99
2019-05-06T07:59:55.769Z,9.91
2019-05-06T08:00:55.791Z,9.94
2019-05-06T08:01:55.806Z,9.90
2019-05-06T08:02:55.846Z,9.97
2019-05-06T08:03:55.990Z,9.96
2019-05-06T08:04:55.844Z,10.01
2019-05-06T08:05:58.764Z,10.14
2019-05-06T08:07:55.892Z,10.17
2019-05-06T08:08:55.911Z,10.25
2019-05-06T08:09:55.893Z,10.20
2019-05-06T08:10:55.902Z,10.11
2019-05-06T08:12:56.337Z,10.25
2019-05-06T08:13:55.958Z,10.23
2019-05-06T08:14:56.187Z,10.36
2019-05-06T08:15:56.051Z,10.44
2019-05-06T08:16:56.040Z,10.36
2019-05-06T08:17:56.050Z,10.36
2019-05-06T08:18:56.015Z,10.42
2019-05-06T08:19:56.022Z,10.41
2019-05-06T08:20:56.039Z,10.32
2019-05-06T08:21:56.057Z,10.38
2019-05-06T08:22:56.761Z,10.29
2019-05-06T08:23:56.060Z,10.47
2019-05-06T08:24:56.082Z,10.68
2019-05-06T08:26:09.287Z,10.67
2019-05-06T08:26:56.103Z,10.82
2019-05-06T08:27:56.939Z,10.92
2019-05-06T08:28:56.148Z,10.85
2019-05-06T08:29:56.226Z,10.94
2019-05-06T08:30:56.959Z,10.89
2019-05-06T08:31:58.047Z,11.00
2019-05-06T08:32:56.199Z,11.06
2019-05-06T08:33:56.247Z,11.09
2019-05-06T08:34:56.262Z,10.94
2019-05-06T08:36:08.956Z,11.09
2019-05-06T08:36:56.222Z,11.09
2019-05-06T08:37:56.238Z,10.92
2019-05-06T08:38:56.277Z,10.96
2019-05-06T08:39:56.268Z,10.73
2019-05-06T08:40:56.271Z,10.55
2019-05-06T08:41:56.296Z,10.38
2019-05-06T08:42:56.296Z,10.38
2019-05-06T08:43:56.350Z,10.32
2019-05-06T08:44:56.375Z,10.42
2019-05-06T08:45:56.357Z,10.53
2019-05-06T08:46:56.363Z,10.61
2019-05-06T08:47:56.660Z,10.59
2019-05-06T08:48:56.392Z,10.63
2019-05-06T08:49:56.384Z,10.63
2019-05-06T08:50:56.397Z,10.60
2019-05-06T08:51:56.481Z,10.63
2019-05-06T08:52:56.605Z,10.53
2019-05-06T08:53:56.575Z,10.56
2019-05-06T08:54:56.569Z,10.64
2019-05-06T08:55:58.873Z,10.64
2019-05-06T08:56:56.472Z,10.47
2019-05-06T08:57:56.479Z,10.44
2019-05-06T08:58:56.493Z,10.60
2019-05-06T08:59:56.510Z,10.68
2019-05-06T09:01:56.544Z,10.76
2019-05-06T09:02:56.597Z,10.71
2019-05-06T09:04:08.311Z,10.81
2019-05-06T09:04:56.564Z,10.94
2019-05-06T09:05:56.589Z,11.02
2019-05-06T09:06:57.197Z,11.21
2019-05-06T09:07:56.604Z,11.47
2019-05-06T09:08:57.123Z,11.47
2019-05-06T09:09:56.659Z,11.55
2019-05-06T09:10:56.652Z,11.33
2019-05-06T09:11:56.661Z,11.28
2019-05-06T09:12:56.681Z,11.35
2019-05-06T09:13:56.673Z,11.52
2019-05-06T09:14:58.909Z,11.61
2019-05-06T09:15:56.704Z,11.75
2019-05-06T09:16:56.768Z,11.86
2019-05-06T09:17:56.774Z,11.91
2019-05-06T09:18:56.991Z,11.95
2019-05-06T09:19:56.773Z,12.02
2019-05-06T09:20:56.759Z,12.17
2019-05-06T09:21:56.773Z,12.07
2019-05-06T09:22:56.783Z,12.24
2019-05-06T09:23:56.795Z,12.32
2019-05-06T09:25:56.824Z,12.16
2019-05-06T09:26:56.883Z,12.35
2019-05-06T09:27:56.904Z,12.31
2019-05-06T09:28:56.859Z,12.14
2019-05-06T09:29:56.901Z,12.17
2019-05-06T09:30:56.885Z,12.10
2019-05-06T09:31:57.232Z,12.10
2019-05-06T09:32:57.095Z,11.86
2019-05-06T09:33:56.941Z,11.86
2019-05-06T09:34:56.953Z,11.82
2019-05-06T09:35:56.960Z,12.02
2019-05-06T09:36:56.960Z,11.98
2019-05-06T09:37:57.038Z,12.04
2019-05-06T09:38:56.997Z,12.21
2019-05-06T09:39:57.010Z,12.19
2019-05-06T09:40:57.023Z,12.39
2019-05-06T09:41:58.202Z,12.47
2019-05-06T09:43:57.056Z,12.47
2019-05-06T09:44:57.078Z,12.52
2019-05-06T09:45:57.085Z,12.46
2019-05-06T09:47:57.177Z,12.67
2019-05-06T09:49:57.849Z,12.46
2019-05-06T09:50:58.338Z,12.32
2019-05-06T09:51:57.161Z,12.23
2019-05-06T09:52:57.981Z,12.10
2019-05-06T09:54:00.363Z,12.04
2019-05-06T09:54:57.803Z,11.98
2019-05-06T09:55:57.361Z,11.90
2019-05-06T09:56:57.218Z,11.94
2019-05-06T09:57:57.343Z,11.88
2019-05-06T09:58:57.498Z,12.02
2019-05-06T09:59:57.418Z,12.19
2019-05-06T10:00:57.272Z,12.23
2019-05-06T10:01:57.820Z,12.20
2019-05-06T10:02:58.109Z,12.35
2019-05-06T10:03:57.611Z,12.50
2019-05-06T10:04:57.316Z,12.47
2019-05-06T10:05:57.358Z,12.74
2019-05-06T10:07:00.075Z,12.78
2019-05-06T10:07:57.636Z,12.68
2019-05-06T10:08:57.898Z,12.68
2019-05-06T10:09:57.482Z,12.87
2019-05-06T10:10:59.889Z,13.19
2019-05-06T10:11:58.512Z,13.45
2019-05-06T10:12:57.532Z,13.36
2019-05-06T10:13:57.507Z,12.92
2019-05-06T10:14:57.453Z,12.87
2019-05-06T10:15:57.847Z,12.89
2019-05-06T10:16:57.471Z,12.95
2019-05-06T10:17:57.550Z,13.25
2019-05-06T10:18:57.503Z,13.51
2019-05-06T10:19:57.579Z,13.49
2019-05-06T10:20:57.523Z,13.41
2019-05-06T10:21:57.566Z,13.49
2019-05-06T10:22:57.574Z,13.51
2019-05-06T10:23:57.584Z,13.63
2019-05-06T10:24:57.609Z,13.73
2019-05-06T10:25:58.588Z,13.78
2019-05-06T10:26:57.669Z,13.69
2019-05-06T10:27:58.691Z,13.70
2019-05-06T10:28:59.174Z,13.84
2019-05-06T10:29:57.668Z,13.97
2019-05-06T10:30:57.678Z,14.12
2019-05-06T10:31:57.951Z,14.12
2019-05-06T10:32:57.686Z,13.91
2019-05-06T10:33:57.703Z,13.84
2019-05-06T10:35:59.333Z,13.88
2019-05-06T10:37:11.539Z,13.85
2019-05-06T10:37:57.781Z,13.95
2019-05-06T10:38:57.869Z,14.10
2019-05-06T10:39:57.895Z,13.95
2019-05-06T10:41:03.889Z,13.60
2019-05-06T10:41:57.831Z,13.41
2019-05-06T10:42:57.835Z,13.20
2019-05-06T10:43:58.225Z,12.92
2019-05-06T10:44:57.869Z,13.04
2019-05-06T10:46:01.006Z,13.08
2019-05-06T10:46:58.350Z,13.15
2019-05-06T10:47:57.917Z,13.22
2019-05-06T10:49:57.996Z,13.46
2019-05-06T10:50:57.957Z,13.38
2019-05-06T10:51:57.961Z,13.32
2019-05-06T10:52:58.471Z,13.22
2019-05-06T10:53:57.984Z,13.11
2019-05-06T10:54:58.094Z,13.38
2019-05-06T10:55:58.057Z,13.48
2019-05-06T10:56:58.017Z,13.59
2019-05-06T10:57:58.036Z,13.88
2019-05-06T10:58:58.060Z,14.07
2019-05-06T10:59:58.113Z,14.35
2019-05-06T11:00:58.369Z,14.36
2019-05-06T11:01:58.089Z,14.06
2019-05-06T11:02:58.102Z,14.09
2019-05-06T11:03:58.120Z,13.79
2019-05-06T11:04:58.128Z,13.79
2019-05-06T11:05:58.144Z,13.87
2019-05-06T11:06:58.166Z,13.89
2019-05-06T11:07:58.186Z,13.71
2019-05-06T11:08:58.181Z,13.60
2019-05-06T11:09:58.200Z,13.52
2019-05-06T11:11:14.037Z,13.71
2019-05-06T11:11:58.233Z,13.75
2019-05-06T11:12:58.306Z,13.70
2019-05-06T11:13:58.282Z,13.88
2019-05-06T11:14:58.290Z,13.96
2019-05-06T11:15:58.295Z,13.87
2019-05-06T11:16:58.299Z,13.88
2019-05-06T11:17:58.319Z,13.92
2019-05-06T11:18:58.418Z,13.96
2019-05-06T11:19:58.953Z,14.02
2019-05-06T11:20:58.475Z,14.04
2019-05-06T11:21:58.398Z,14.07
2019-05-06T11:22:58.899Z,13.89
2019-05-06T11:23:58.395Z,13.91
2019-05-06T11:25:00.127Z,14.00
2019-05-06T11:25:58.430Z,14.04
2019-05-06T11:27:03.501Z,14.17
2019-05-06T11:27:58.809Z,14.29
2019-05-06T11:28:58.480Z,14.27
2019-05-06T11:29:59.587Z,14.25
2019-05-06T11:30:58.674Z,14.04
2019-05-06T11:33:59.043Z,13.97
2019-05-06T11:34:59.789Z,13.97
2019-05-06T11:35:59.553Z,14.06
2019-05-06T11:36:58.722Z,14.35
2019-05-06T11:39:00.643Z,13.73
2019-05-06T11:39:58.848Z,13.82
2019-05-06T11:41:00.544Z,14.04
2019-05-06T11:42:22.540Z,14.04
2019-05-06T11:44:00.139Z,13.97
2019-05-06T11:44:58.857Z,14.04
2019-05-06T11:45:58.709Z,14.04
2019-05-06T11:46:58.846Z,13.92
2019-05-06T11:47:58.728Z,13.89
2019-05-06T11:49:58.859Z,14.07
2019-05-06T11:50:59.555Z,14.46
2019-05-06T11:51:58.788Z,14.60
2019-05-06T11:52:58.996Z,14.91
2019-05-06T11:54:02.715Z,15.07
2019-05-06T11:54:58.930Z,14.96
2019-05-06T11:55:58.931Z,15.06
2019-05-06T11:56:58.860Z,14.61
2019-05-06T11:57:59.201Z,14.32
2019-05-06T11:58:59.324Z,14.36
2019-05-06T11:59:58.924Z,14.36
2019-05-06T12:00:58.922Z,14.03
2019-05-06T12:01:58.930Z,13.89
2019-05-06T12:03:02.235Z,13.73
2019-05-06T12:03:59.012Z,13.73
2019-05-06T12:04:59.164Z,13.85
2019-05-06T12:05:59.007Z,13.85
2019-05-06T12:07:10.416Z,13.77
2019-05-06T12:08:04.633Z,13.67
2019-05-06T12:08:59.348Z,13.79
2019-05-06T12:09:59.036Z,13.84
2019-05-06T12:10:59.644Z,13.70
2019-05-06T12:11:59.132Z,13.67
2019-05-06T12:12:59.137Z,13.62
2019-05-06T12:14:02.415Z,13.70
2019-05-06T12:15:00.213Z,13.85
2019-05-06T12:15:59.125Z,13.91
2019-05-06T12:17:02.043Z,13.69
2019-05-06T12:17:59.252Z,13.62
2019-05-06T12:19:59.183Z,13.91
2019-05-06T12:21:10.998Z,14.00
2019-05-06T12:21:59.335Z,14.07
2019-05-06T12:22:59.268Z,13.96
2019-05-06T12:23:59.297Z,14.24
2019-05-06T12:24:59.757Z,14.20
2019-05-06T12:25:59.330Z,14.04
2019-05-06T12:26:59.702Z,14.09
2019-05-06T12:28:02.875Z,13.92
2019-05-06T12:29:01.976Z,14.04
2019-05-06T12:29:59.516Z,14.07
2019-05-06T12:30:59.336Z,14.28
2019-05-06T12:32:00.348Z,14.36
2019-05-06T12:32:59.380Z,14.36
2019-05-06T12:33:59.394Z,14.52
2019-05-06T12:34:59.509Z,14.58
2019-05-06T12:35:59.394Z,14.70
2019-05-06T12:36:59.412Z,14.70
2019-05-06T12:37:59.433Z,14.73
2019-05-06T12:38:59.976Z,14.72
2019-05-06T12:39:59.609Z,14.45
2019-05-06T12:41:00.100Z,14.39
2019-05-06T12:41:59.483Z,14.28
2019-05-06T12:43:03.755Z,14.03
2019-05-06T12:43:59.516Z,14.04
2019-05-06T12:45:03.276Z,14.18
2019-05-06T12:45:59.548Z,14.14
2019-05-06T12:47:00.178Z,14.15
2019-05-06T12:48:59.841Z,14.81
2019-05-06T12:51:00.012Z,15.56
2019-05-06T12:52:00.003Z,15.90
2019-05-06T12:52:59.655Z,15.94
2019-05-06T12:53:59.690Z,15.83
2019-05-06T12:55:14.578Z,15.82
2019-05-06T12:55:59.963Z,16.12
2019-05-06T12:56:59.757Z,16.15
2019-05-06T12:57:59.757Z,16.05
2019-05-06T13:00:03.087Z,15.75
2019-05-06T13:01:00.035Z,15.72
2019-05-06T13:03:02.109Z,16.14
2019-05-06T13:03:59.990Z,16.20
2019-05-06T13:05:03.232Z,16.15
2019-05-06T13:06:59.850Z,15.59
2019-05-06T13:08:04.354Z,15.34
2019-05-06T13:09:04.134Z,15.19
2019-05-06T13:11:02.455Z,15.17
2019-05-06T13:13:00.305Z,15.17
2019-05-06T13:14:00.774Z,15.28
2019-05-06T13:14:59.979Z,15.34
2019-05-06T13:15:59.991Z,14.91
2019-05-06T13:17:02.396Z,14.77
2019-05-06T13:18:06.295Z,14.70
2019-05-06T13:19:00.029Z,14.52
2019-05-06T13:20:00.241Z,14.39
2019-05-06T13:21:00.177Z,14.29
2019-05-06T13:23:00.144Z,14.06
2019-05-06T13:24:02.382Z,14.36
2019-05-06T13:25:00.123Z,14.86
2019-05-06T13:26:02.094Z,15.35
2019-05-06T13:27:02.293Z,15.59
2019-05-06T13:28:00.163Z,15.76
2019-05-06T13:29:04.101Z,15.97
2019-05-06T13:30:02.323Z,15.68
2019-05-06T13:31:13.472Z,15.65
2019-05-06T13:35:02.841Z,14.92
2019-05-06T13:36:00.282Z,14.77
2019-05-06T13:38:00.363Z,14.52
2019-05-06T13:39:13.333Z,14.54
2019-05-06T13:40:02.331Z,14.12
2019-05-06T13:42:00.457Z,14.02
2019-05-06T13:43:00.617Z,13.97
2019-05-06T13:46:02.832Z,14.09
2019-05-06T13:47:02.787Z,13.96
2019-05-06T13:48:00.446Z,13.92
2019-05-06T13:49:02.587Z,13.92
2019-05-06T13:50:02.783Z,14.04
2019-05-06T13:51:03.430Z,14.12
2019-05-06T13:52:03.953Z,14.50
2019-05-06T13:53:09.229Z,15.47
2019-05-06T13:54:02.530Z,16.39
2019-05-06T13:55:02.516Z,17.44
2019-05-06T13:56:02.618Z,18.12
2019-05-06T13:57:02.717Z,17.36
2019-05-06T13:58:03.011Z,16.78
2019-05-06T13:59:00.619Z,16.39
2019-05-06T14:00:02.912Z,16.08
2019-05-06T14:01:02.782Z,15.87
2019-05-06T14:02:06.143Z,15.78
2019-05-06T14:03:02.137Z,15.46
2019-05-06T14:04:03.645Z,15.09
2019-05-06T14:05:02.939Z,14.78
2019-05-06T14:06:02.860Z,14.54
2019-05-06T14:07:03.423Z,14.55
2019-05-06T14:08:04.186Z,15.02
2019-05-06T14:09:03.297Z,15.10
2019-05-06T14:10:02.915Z,14.99
2019-05-06T14:11:03.074Z,15.17